createdAt,value
2017-08-26T00:01:01.620Z,25.20
2017-08-26T00:03:29.864Z,19.90
2017-08-26T00:05:57.326Z,19.90
2017-08-26T00:08:24.816Z,23.13
2017-08-26T00:10:52.285Z,30.97
2017-08-26T00:13:19.815Z,31.20
2017-08-26T00:15:47.295Z,25.03
2017-08-26T00:18:14.779Z,19.57
2017-08-26T00:20:42.280Z,28.03
2017-08-26T00:23:09.755Z,26.57
2017-08-26T00:25:37.223Z,27.30
2017-08-26T00:28:05.460Z,22.70
2017-08-26T00:30:32.940Z,26.23
2017-08-26T00:33:00.409Z,25.17
2017-08-26T00:35:27.866Z,22.60
2017-08-26T00:37:55.395Z,22.90
2017-08-26T00:40:22.972Z,20.87
2017-08-26T00:42:50.471Z,18.37
2017-08-26T00:45:17.948Z,21.60
2017-08-26T00:47:45.445Z,21.13
2017-08-26T00:50:12.907Z,19.60
2017-08-26T00:52:40.443Z,22.40
2017-08-26T00:55:08.054Z,19.60
2017-08-26T00:57:35.573Z,18.37
2017-08-26T01:00:03.120Z,20.00
2017-08-26T01:02:30.685Z,24.60
2017-08-26T01:04:58.243Z,23.47
2017-08-26T01:07:31.511Z,23.70
2017-08-26T01:09:58.975Z,27.10
2017-08-26T01:12:26.447Z,21.73
2017-08-26T01:14:53.932Z,21.00
2017-08-26T01:17:22.160Z,19.77
2017-08-26T01:19:49.620Z,26.27
2017-08-26T01:22:17.915Z,22.30
2017-08-26T01:24:45.391Z,25.53
2017-08-26T01:27:12.860Z,18.40
2017-08-26T01:29:40.411Z,19.23
2017-08-26T01:32:07.872Z,25.07
2017-08-26T01:34:35.347Z,17.90
2017-08-26T01:37:02.834Z,19.53
2017-08-26T01:39:30.310Z,15.13
2017-08-26T01:41:58.243Z,18.67
2017-08-26T01:44:25.717Z,17.53
2017-08-26T01:46:53.191Z,17.70
2017-08-26T01:49:20.660Z,16.83
2017-08-26T01:51:48.147Z,21.87
2017-08-26T01:54:15.679Z,20.97
2017-08-26T01:56:43.244Z,18.10
2017-08-26T01:59:10.728Z,17.57
2017-08-26T02:01:38.233Z,16.07
2017-08-26T02:04:05.698Z,17.07
2017-08-26T02:06:33.249Z,19.77
2017-08-26T02:09:00.819Z,16.63
2017-08-26T02:11:28.276Z,17.60
2017-08-26T02:13:55.876Z,18.53
2017-08-26T02:16:23.330Z,20.73
2017-08-26T02:18:51.598Z,17.13
2017-08-26T02:21:19.079Z,20.70
2017-08-26T02:23:46.571Z,23.63
2017-08-26T02:26:14.033Z,20.33
2017-08-26T02:28:41.513Z,18.93
2017-08-26T02:31:08.967Z,16.97
2017-08-26T02:33:37.219Z,17.93
2017-08-26T02:36:04.691Z,19.30
2017-08-26T02:38:32.233Z,22.37
2017-08-26T02:40:59.699Z,19.67
2017-08-26T02:43:27.176Z,19.60
2017-08-26T02:45:54.704Z,20.50
2017-08-26T02:48:22.163Z,20.90
2017-08-26T02:50:49.723Z,18.50
2017-08-26T02:53:17.285Z,21.50
2017-08-26T02:55:44.742Z,17.10
2017-08-26T02:58:13.019Z,23.63
2017-08-26T03:00:41.252Z,21.00
2017-08-26T03:03:08.758Z,20.23
2017-08-26T03:05:36.263Z,20.90
2017-08-26T03:08:03.771Z,21.27
2017-08-26T03:10:32.030Z,18.93
2017-08-26T03:12:59.507Z,19.90
2017-08-26T03:15:27.043Z,19.10
2017-08-26T03:17:54.519Z,17.60
2017-08-26T03:20:21.987Z,16.90
2017-08-26T03:22:49.451Z,24.10
2017-08-26T03:25:16.915Z,17.47
2017-08-26T03:27:44.417Z,22.00
2017-08-26T03:30:12.507Z,18.93
2017-08-26T03:32:39.979Z,19.70
2017-08-26T03:35:07.468Z,20.77
2017-08-26T03:37:35.026Z,20.17
2017-08-26T03:40:02.526Z,16.23
2017-08-26T03:42:30.102Z,20.63
2017-08-26T03:44:57.564Z,18.67
2017-08-26T03:47:25.029Z,22.13
2017-08-26T03:49:53.379Z,24.30
2017-08-26T03:52:20.863Z,19.10
2017-08-26T03:54:48.538Z,20.37
2017-08-26T03:57:16.022Z,17.97
2017-08-26T03:59:43.514Z,19.77
2017-08-26T04:02:10.986Z,23.83
2017-08-26T04:04:39.251Z,19.93
2017-08-26T04:07:06.721Z,26.47
2017-08-26T04:09:34.888Z,21.53
2017-08-26T04:12:02.439Z,25.57
2017-08-26T04:14:29.910Z,21.47
2017-08-26T04:16:57.370Z,25.10
2017-08-26T04:19:24.852Z,19.50
2017-08-26T04:21:53.383Z,18.90
2017-08-26T04:24:20.858Z,23.10
2017-08-26T04:26:48.337Z,20.57
2017-08-26T04:29:15.809Z,26.10
2017-08-26T04:31:43.273Z,22.03
2017-08-26T04:34:10.784Z,27.40
2017-08-26T04:36:38.253Z,22.27
2017-08-26T04:39:05.714Z,21.33
2017-08-26T04:41:34.057Z,32.43
2017-08-26T04:44:01.632Z,26.13
2017-08-26T04:46:29.873Z,26.13
2017-08-26T04:48:57.369Z,26.27
2017-08-26T04:51:25.638Z,22.43
2017-08-26T04:53:53.110Z,23.70
2017-08-26T04:56:20.598Z,23.10
2017-08-26T04:58:48.280Z,25.93
2017-08-26T05:01:15.751Z,24.83
2017-08-26T05:03:43.268Z,22.53
2017-08-26T05:06:10.836Z,26.93
2017-08-26T05:08:38.299Z,25.50
2017-08-26T05:11:05.789Z,23.40
2017-08-26T05:13:34.092Z,23.67
2017-08-26T05:16:01.556Z,24.17
2017-08-26T05:18:29.042Z,22.53
2017-08-26T05:20:57.339Z,22.10
2017-08-26T05:23:24.824Z,26.67
2017-08-26T05:25:52.329Z,19.77
2017-08-26T05:28:19.839Z,21.57
2017-08-26T05:30:47.411Z,23.57
2017-08-26T05:33:14.914Z,23.07
2017-08-26T05:35:42.431Z,21.17
2017-08-26T05:38:09.962Z,19.60
2017-08-26T05:40:37.446Z,21.30
2017-08-26T05:43:04.914Z,17.80
2017-08-26T05:45:32.397Z,20.37
2017-08-26T05:47:59.891Z,20.20
2017-08-26T05:50:27.446Z,19.37
2017-08-26T05:52:54.926Z,16.70
2017-08-26T05:55:22.439Z,18.63
2017-08-26T05:57:49.924Z,20.13
2017-08-26T06:00:17.395Z,21.17
2017-08-26T06:02:44.923Z,25.37
2017-08-26T06:05:12.399Z,23.90
2017-08-26T06:07:39.884Z,19.63
2017-08-26T06:10:07.587Z,23.07
2017-08-26T06:12:35.060Z,22.30
2017-08-26T06:15:02.539Z,18.97
2017-08-26T06:17:30.095Z,23.50
2017-08-26T06:19:57.573Z,21.03
2017-08-26T06:22:25.032Z,24.30
2017-08-26T06:24:52.527Z,22.23
2017-08-26T06:27:20.012Z,23.80
2017-08-26T06:29:47.500Z,22.57
2017-08-26T06:32:15.380Z,22.10
2017-08-26T06:34:42.908Z,20.50
2017-08-26T06:37:10.383Z,20.70
2017-08-26T06:39:37.863Z,23.33
2017-08-26T06:42:05.338Z,19.50
2017-08-26T06:44:32.839Z,17.40
2017-08-26T06:47:01.084Z,18.87
2017-08-26T06:49:28.550Z,20.27
2017-08-26T06:51:56.212Z,15.63
2017-08-26T06:54:23.794Z,19.47
2017-08-26T06:56:52.280Z,16.57
2017-08-26T06:59:19.820Z,16.27
2017-08-26T07:01:47.371Z,18.30
2017-08-26T07:04:14.848Z,12.07
2017-08-26T07:06:42.487Z,14.33
2017-08-26T07:09:10.179Z,19.30
2017-08-26T07:11:37.731Z,13.73
2017-08-26T07:14:05.196Z,15.80
2017-08-26T07:16:32.681Z,11.00
2017-08-26T07:19:00.184Z,10.70
2017-08-26T07:21:27.739Z,13.27
2017-08-26T07:23:55.309Z,18.07
2017-08-26T07:26:22.833Z,17.30
2017-08-26T07:28:50.305Z,11.80
2017-08-26T07:31:17.765Z,12.93
2017-08-26T07:33:45.266Z,16.90
2017-08-26T07:36:12.736Z,14.57
2017-08-26T07:38:40.195Z,17.73
2017-08-26T07:41:07.708Z,16.57
2017-08-26T07:43:36.153Z,18.03
2017-08-26T07:46:03.634Z,15.10
2017-08-26T07:48:31.205Z,19.23
2017-08-26T07:50:59.475Z,16.60
2017-08-26T07:53:27.031Z,15.27
2017-08-26T07:55:54.952Z,14.73
2017-08-26T07:58:22.611Z,21.50
2017-08-26T08:00:50.104Z,19.20
2017-08-26T08:03:17.602Z,16.60
2017-08-26T08:05:45.128Z,15.50
2017-08-26T08:08:12.596Z,16.03
2017-08-26T08:10:40.092Z,14.13
2017-08-26T08:13:07.608Z,17.33
2017-08-26T08:15:35.151Z,15.30
2017-08-26T08:18:02.771Z,18.33
2017-08-26T08:20:30.224Z,20.73
2017-08-26T08:22:57.694Z,22.53
2017-08-26T08:25:25.222Z,14.60
2017-08-26T08:27:52.748Z,14.83
2017-08-26T08:30:20.307Z,12.50
2017-08-26T08:32:48.701Z,10.93
2017-08-26T08:35:16.974Z,11.10
2017-08-26T08:37:44.439Z,12.23
2017-08-26T08:40:12.798Z,11.70
2017-08-26T08:42:40.343Z,9.23
2017-08-26T08:45:07.927Z,9.13
2017-08-26T08:47:36.514Z,12.87
2017-08-26T08:50:04.046Z,12.93
2017-08-26T08:52:31.511Z,10.83
2017-08-26T08:54:58.981Z,13.30
2017-08-26T08:57:26.443Z,14.37
2017-08-26T08:59:53.984Z,14.13
2017-08-26T09:02:21.463Z,14.93
2017-08-26T09:04:49.152Z,13.93
2017-08-26T09:07:16.671Z,16.90
2017-08-26T09:09:44.235Z,10.27
2017-08-26T09:12:11.780Z,11.00
2017-08-26T09:14:39.235Z,9.87
2017-08-26T09:17:07.772Z,12.60
2017-08-26T09:19:35.290Z,9.43
2017-08-26T09:22:02.740Z,15.10
2017-08-26T09:24:31.313Z,10.97
2017-08-26T09:26:59.283Z,12.97
2017-08-26T09:29:26.751Z,11.27
2017-08-26T09:31:54.991Z,11.77
2017-08-26T09:34:22.453Z,9.20
2017-08-26T09:36:50.535Z,10.73
2017-08-26T09:39:18.006Z,11.23
2017-08-26T09:41:45.468Z,10.20
2017-08-26T09:44:12.940Z,10.97
2017-08-26T09:46:40.424Z,12.60
2017-08-26T09:49:07.879Z,9.63
2017-08-26T09:51:35.380Z,11.90
2017-08-26T09:54:03.116Z,9.40
2017-08-26T09:56:30.596Z,6.97
2017-08-26T09:58:58.310Z,11.40
2017-08-26T10:01:25.827Z,12.73
2017-08-26T10:03:53.292Z,12.03
2017-08-26T10:06:20.752Z,13.87
2017-08-26T10:08:48.260Z,17.33
2017-08-26T10:11:15.755Z,17.93
2017-08-26T10:13:43.312Z,13.13
2017-08-26T10:16:10.771Z,12.17
2017-08-26T10:18:38.330Z,11.77
2017-08-26T10:21:05.879Z,11.97
2017-08-26T10:23:33.552Z,12.77
2017-08-26T10:26:01.024Z,13.27
2017-08-26T10:28:29.295Z,16.23
2017-08-26T10:30:56.771Z,14.27
2017-08-26T10:33:24.264Z,13.10
2017-08-26T10:35:51.739Z,16.80
2017-08-26T10:38:19.239Z,10.87
2017-08-26T10:40:46.716Z,14.73
2017-08-26T10:43:14.188Z,12.13
2017-08-26T10:45:41.663Z,13.40
2017-08-26T10:48:09.140Z,12.50
2017-08-26T10:50:36.608Z,16.20
2017-08-26T10:53:04.107Z,18.40
2017-08-26T10:55:31.598Z,18.33
2017-08-26T10:57:59.059Z,20.30
2017-08-26T11:00:26.532Z,16.80
2017-08-26T11:02:54.087Z,16.00
2017-08-26T11:05:22.314Z,16.67
2017-08-26T11:07:49.787Z,25.20
2017-08-26T11:10:17.363Z,16.53
2017-08-26T11:12:44.835Z,19.17
2017-08-26T11:15:12.375Z,23.27
2017-08-26T11:17:39.853Z,18.50
2017-08-26T11:20:07.345Z,15.87
2017-08-26T11:22:34.832Z,17.00
2017-08-26T11:25:02.312Z,17.27
2017-08-26T11:27:29.772Z,19.57
2017-08-26T11:29:57.261Z,20.17
2017-08-26T11:32:24.732Z,17.33
2017-08-26T11:34:52.341Z,12.80
2017-08-26T11:37:19.897Z,19.67
2017-08-26T11:39:47.529Z,20.40
2017-08-26T11:42:14.992Z,17.77
2017-08-26T11:44:42.489Z,17.60
2017-08-26T11:47:09.960Z,22.60
2017-08-26T11:49:37.420Z,17.83
2017-08-26T11:52:05.655Z,21.93
2017-08-26T11:54:33.211Z,20.93
2017-08-26T11:57:00.857Z,18.70
2017-08-26T11:59:28.687Z,18.50
2017-08-26T12:01:56.898Z,19.43
2017-08-26T12:04:24.776Z,17.87
2017-08-26T12:06:52.265Z,29.90
2017-08-26T12:09:20.520Z,19.57
2017-08-26T12:11:47.997Z,18.93
2017-08-26T12:14:16.248Z,19.83
2017-08-26T12:16:43.807Z,17.80
2017-08-26T12:19:11.286Z,14.20
2017-08-26T12:21:39.515Z,18.43
2017-08-26T12:24:07.091Z,17.20
2017-08-26T12:26:35.159Z,19.13
2017-08-26T12:29:02.647Z,18.97
2017-08-26T12:31:30.892Z,21.20
2017-08-26T12:33:58.455Z,18.43
2017-08-26T12:36:25.935Z,23.73
2017-08-26T12:38:54.197Z,18.53
2017-08-26T12:41:21.668Z,16.43
2017-08-26T12:43:49.130Z,20.10
2017-08-26T12:46:16.687Z,23.73
2017-08-26T12:48:44.916Z,21.17
2017-08-26T12:51:12.375Z,21.00
2017-08-26T12:53:39.846Z,19.53
2017-08-26T12:56:07.364Z,19.73
2017-08-26T12:58:35.151Z,19.40
2017-08-26T13:01:02.730Z,21.10
2017-08-26T13:03:30.192Z,26.30
2017-08-26T13:05:57.679Z,27.73
2017-08-26T13:08:25.201Z,23.63
2017-08-26T13:10:52.655Z,19.10
2017-08-26T13:13:20.221Z,30.47
2017-08-26T13:15:47.988Z,21.90
2017-08-26T13:18:15.465Z,25.33
2017-08-26T13:20:42.927Z,24.27
2017-08-26T13:23:10.778Z,24.77
2017-08-26T13:25:39.020Z,32.80
2017-08-26T13:28:06.491Z,31.10
2017-08-26T13:30:34.185Z,24.83
2017-08-26T13:33:01.725Z,29.87
2017-08-26T13:35:29.998Z,26.40
2017-08-26T13:37:58.888Z,27.00
2017-08-26T13:40:27.154Z,28.93
2017-08-26T13:42:54.713Z,31.43
2017-08-26T13:45:22.196Z,36.90
2017-08-26T13:47:49.691Z,25.47
2017-08-26T13:50:17.176Z,28.13
2017-08-26T13:52:44.892Z,27.00
2017-08-26T13:55:12.360Z,24.90
2017-08-26T13:57:39.862Z,35.40
2017-08-26T14:00:08.231Z,22.70
2017-08-26T14:02:35.814Z,34.63
2017-08-26T14:05:03.274Z,25.53
2017-08-26T14:07:31.008Z,29.90
2017-08-26T14:09:58.491Z,25.43
2017-08-26T14:12:25.959Z,26.40
2017-08-26T14:14:53.503Z,23.43
2017-08-26T14:17:20.968Z,30.40
2017-08-26T14:19:48.503Z,19.30
2017-08-26T14:22:16.683Z,18.50
2017-08-26T14:24:44.231Z,20.30
2017-08-26T14:27:11.785Z,22.13
2017-08-26T14:29:39.255Z,14.33
2017-08-26T14:32:06.723Z,11.80
2017-08-26T14:34:34.995Z,7.63
2017-08-26T14:37:03.518Z,6.10
2017-08-26T14:39:30.978Z,14.60
2017-08-26T14:41:58.444Z,17.27
2017-08-26T14:44:26.028Z,16.30
2017-08-26T14:46:53.904Z,16.70
2017-08-26T14:49:21.375Z,27.30
2017-08-26T14:51:48.921Z,21.87
2017-08-26T14:54:17.456Z,24.70
2017-08-26T14:56:44.933Z,27.47
2017-08-26T14:59:13.192Z,29.17
2017-08-26T15:01:40.663Z,27.37
2017-08-26T15:04:08.145Z,25.53
2017-08-26T15:06:35.627Z,24.73
2017-08-26T15:09:03.118Z,25.20
2017-08-26T15:11:30.576Z,23.63
2017-08-26T15:13:58.815Z,26.47
2017-08-26T15:16:26.363Z,27.30
2017-08-26T15:18:53.831Z,22.53
2017-08-26T15:21:21.291Z,28.83
2017-08-26T15:23:49.702Z,33.23
2017-08-26T15:26:17.204Z,28.80
2017-08-26T15:28:44.772Z,34.03
2017-08-26T15:31:13.119Z,27.50
2017-08-26T15:33:40.641Z,29.90
2017-08-26T15:36:08.139Z,28.23
2017-08-26T15:38:35.624Z,33.13
2017-08-26T15:41:03.147Z,35.43
2017-08-26T15:43:30.719Z,40.00
2017-08-26T15:45:58.484Z,51.33
2017-08-26T15:48:26.034Z,39.70
2017-08-26T15:50:53.598Z,33.13
2017-08-26T15:53:21.359Z,34.73
2017-08-26T15:55:48.923Z,38.80
2017-08-26T15:58:16.504Z,35.87
2017-08-26T16:00:44.056Z,36.80
2017-08-26T16:03:11.522Z,49.70
2017-08-26T16:05:39.019Z,48.90
2017-08-26T16:08:06.501Z,51.23
2017-08-26T16:10:33.959Z,48.87
2017-08-26T16:13:01.553Z,48.07
2017-08-26T16:15:29.035Z,49.93
2017-08-26T16:17:56.650Z,51.00
2017-08-26T16:20:24.203Z,52.27
2017-08-26T16:22:51.769Z,59.03
2017-08-26T16:25:19.236Z,57.70
2017-08-26T16:27:48.552Z,60.60
2017-08-26T16:30:16.079Z,54.80
2017-08-26T16:32:43.634Z,56.37
2017-08-26T16:35:11.193Z,64.20
2017-08-26T16:37:39.279Z,66.40
2017-08-26T16:40:06.740Z,60.33
2017-08-26T16:42:34.211Z,62.17
2017-08-26T16:45:01.695Z,65.23
2017-08-26T16:47:29.349Z,60.20
2017-08-26T16:49:56.839Z,76.80
2017-08-26T16:52:25.508Z,57.03
2017-08-26T16:54:52.976Z,57.57
2017-08-26T16:57:20.447Z,68.10
2017-08-26T16:59:48.007Z,132.53
2017-08-26T17:02:16.004Z,50.20
2017-08-26T17:04:43.534Z,51.67
2017-08-26T17:07:11.144Z,59.30
2017-08-26T17:09:38.651Z,50.20
2017-08-26T17:12:06.216Z,59.60
2017-08-26T17:14:33.767Z,51.83
2017-08-26T17:17:01.553Z,57.07
2017-08-26T17:19:29.024Z,49.90
2017-08-26T17:21:58.296Z,53.60
2017-08-26T17:24:25.868Z,53.20
2017-08-26T17:26:53.528Z,52.47
2017-08-26T17:29:21.071Z,50.03
2017-08-26T17:31:48.563Z,45.30
2017-08-26T17:34:16.056Z,44.73
2017-08-26T17:36:43.533Z,46.43
2017-08-26T17:39:11.355Z,48.07
2017-08-26T17:41:39.136Z,48.13
2017-08-26T17:44:06.703Z,45.23
2017-08-26T17:46:34.645Z,49.63
2017-08-26T17:49:05.799Z,47.83
2017-08-26T17:51:33.400Z,46.47
2017-08-26T17:54:01.187Z,43.50
2017-08-26T17:56:29.156Z,42.40
2017-08-26T17:58:57.340Z,43.80
2017-08-26T18:01:25.402Z,44.57
2017-08-26T18:03:53.483Z,47.73
2017-08-26T18:06:21.156Z,42.93
2017-08-26T18:08:48.882Z,43.13
2017-08-26T18:11:17.803Z,45.23
2017-08-26T18:13:45.990Z,42.40
2017-08-26T18:16:13.461Z,40.10
2017-08-26T18:18:40.952Z,48.20
2017-08-26T18:21:08.429Z,38.77
2017-08-26T18:23:38.187Z,45.20
2017-08-26T18:26:05.771Z,36.10
2017-08-26T18:28:33.814Z,39.17
2017-08-26T18:31:01.331Z,39.13
2017-08-26T18:33:28.873Z,43.27
2017-08-26T18:35:56.427Z,41.17
2017-08-26T18:38:23.890Z,39.27
2017-08-26T18:40:51.647Z,45.63
2017-08-26T18:43:19.195Z,39.00
2017-08-26T18:45:46.760Z,44.77
2017-08-26T18:48:14.352Z,39.83
2017-08-26T18:50:41.841Z,39.77
2017-08-26T18:53:09.337Z,39.80
2017-08-26T18:55:36.828Z,36.07
2017-08-26T18:58:04.351Z,39.77
2017-08-26T19:00:31.820Z,39.10
2017-08-26T19:02:59.536Z,37.33
2017-08-26T19:05:27.700Z,42.70
2017-08-26T19:07:55.258Z,39.93
2017-08-26T19:10:22.737Z,40.73
2017-08-26T19:12:50.227Z,39.40
2017-08-26T19:15:17.767Z,35.27
2017-08-26T19:17:45.253Z,47.27
2017-08-26T19:20:12.743Z,39.07
2017-08-26T19:22:40.212Z,38.37
2017-08-26T19:25:07.692Z,33.93
2017-08-26T19:27:35.160Z,34.03
2017-08-26T19:30:02.727Z,37.80
2017-08-26T19:32:30.208Z,43.23
2017-08-26T19:34:57.709Z,34.40
2017-08-26T19:37:25.180Z,44.97
2017-08-26T19:39:52.686Z,44.83
2017-08-26T19:42:20.208Z,42.43
2017-08-26T19:44:47.679Z,39.43
2017-08-26T19:47:15.156Z,36.60
2017-08-26T19:49:42.635Z,39.60
2017-08-26T19:52:10.140Z,33.47
2017-08-26T19:54:37.611Z,41.50
2017-08-26T19:57:05.878Z,38.40
2017-08-26T19:59:33.635Z,46.27
2017-08-26T20:02:01.100Z,37.20
2017-08-26T20:04:28.653Z,36.23
2017-08-26T20:06:56.185Z,37.60
2017-08-26T20:09:23.762Z,43.17
2017-08-26T20:11:51.247Z,37.27
2017-08-26T20:14:18.799Z,40.60
2017-08-26T20:16:46.269Z,40.30
2017-08-26T20:19:13.744Z,47.20
2017-08-26T20:21:41.216Z,31.23
2017-08-26T20:24:08.684Z,35.07
2017-08-26T20:26:36.269Z,37.00
2017-08-26T20:29:03.843Z,39.40
2017-08-26T20:31:31.315Z,36.43
2017-08-26T20:33:58.792Z,34.07
2017-08-26T20:36:26.563Z,38.13
2017-08-26T20:38:54.057Z,38.00
2017-08-26T20:41:21.614Z,35.17
2017-08-26T20:43:49.094Z,33.80
2017-08-26T20:46:16.633Z,33.37
2017-08-26T20:48:44.129Z,33.97
2017-08-26T20:51:11.653Z,39.20
2017-08-26T20:53:39.223Z,34.33
2017-08-26T20:56:06.686Z,31.00
2017-08-26T20:58:34.196Z,30.00
2017-08-26T21:01:01.669Z,30.13
2017-08-26T21:03:29.139Z,31.80
2017-08-26T21:05:56.659Z,36.80
2017-08-26T21:08:24.327Z,34.07
2017-08-26T21:10:51.916Z,39.10
2017-08-26T21:13:19.708Z,36.47
2017-08-26T21:15:47.237Z,37.03
2017-08-26T21:18:14.703Z,34.90
2017-08-26T21:20:42.427Z,38.10
2017-08-26T21:23:09.952Z,29.33
2017-08-26T21:25:37.452Z,25.90
2017-08-26T21:28:04.959Z,33.03
2017-08-26T21:30:33.443Z,31.67
2017-08-26T21:33:00.979Z,34.13
2017-08-26T21:35:28.465Z,34.03
2017-08-26T21:37:57.116Z,38.17
2017-08-26T21:40:24.811Z,33.63
2017-08-26T21:42:52.336Z,41.73
2017-08-26T21:45:19.832Z,38.37
2017-08-26T21:47:47.352Z,31.10
2017-08-26T21:50:15.503Z,38.43
2017-08-26T21:52:42.974Z,43.77
2017-08-26T21:55:10.595Z,40.87
2017-08-26T21:57:38.222Z,42.07
2017-08-26T22:00:05.684Z,32.67
2017-08-26T22:02:33.251Z,37.23
2017-08-26T22:05:00.795Z,40.33
2017-08-26T22:07:28.328Z,38.90
2017-08-26T22:09:55.791Z,34.30
2017-08-26T22:12:23.295Z,33.57
2017-08-26T22:14:50.792Z,35.10
2017-08-26T22:17:18.258Z,38.27
2017-08-26T22:19:45.749Z,40.90
2017-08-26T22:22:13.219Z,35.40
2017-08-26T22:24:40.712Z,42.80
2017-08-26T22:27:08.226Z,40.00
2017-08-26T22:29:35.746Z,41.90
2017-08-26T22:32:03.206Z,39.83
2017-08-26T22:34:36.921Z,45.10
2017-08-26T22:37:04.510Z,43.60
2017-08-26T22:39:32.198Z,44.93
2017-08-26T22:41:59.845Z,43.97
2017-08-26T22:44:27.665Z,44.20
2017-08-26T22:46:55.128Z,41.33
2017-08-26T22:49:23.384Z,39.80
2017-08-26T22:51:50.939Z,36.30
2017-08-26T22:54:18.500Z,48.90
2017-08-26T22:56:45.979Z,37.03
2017-08-26T22:59:14.236Z,35.60
2017-08-26T23:01:41.792Z,30.03
2017-08-26T23:04:09.271Z,35.37
2017-08-26T23:06:36.952Z,40.73
2017-08-26T23:09:04.427Z,28.80
2017-08-26T23:11:31.913Z,38.73
2017-08-26T23:13:59.462Z,32.93
2017-08-26T23:16:26.924Z,40.10
2017-08-26T23:18:54.405Z,36.10
2017-08-26T23:21:21.975Z,35.47
2017-08-26T23:23:50.209Z,33.27
2017-08-26T23:26:17.780Z,34.00
2017-08-26T23:28:45.392Z,29.70
2017-08-26T23:31:12.904Z,34.80
2017-08-26T23:33:40.465Z,39.47
2017-08-26T23:36:08.011Z,34.57
2017-08-26T23:38:36.391Z,35.83
2017-08-26T23:41:03.959Z,30.40
2017-08-26T23:43:31.419Z,32.50
2017-08-26T23:45:58.970Z,34.03
2017-08-26T23:48:26.447Z,29.70
2017-08-26T23:50:53.907Z,32.33
2017-08-26T23:53:22.159Z,35.23
2017-08-26T23:55:49.715Z,27.33
2017-08-26T23:58:17.271Z,30.87
